Time;durP1;ratioP1;P1;durP2;ratioP2;P2;SDS_P1;SDS_P2;PMS_P1;PMS_P2;Temp;Humidity;BMP_temperature;BMP_pressure;BME280_temperature;BME280_humidity;BME280_pressure;Samples;Min_cycle;Max_cycle;Signal;HPM_P1;HPM_P2
2023/06/18 00:01:16;;;;;;;14.90;9.40;;;;;;;31.91;31.12;99674.14;108049;1254;70094;-69
2023/06/18 00:03:43;;;;;;;11.90;8.50;;;;;;;32.04;30.95;99671.25;108093;1254;72641;-67
2023/06/18 00:06:10;;;;;;;12.10;9.40;;;;;;;32.19;30.57;99671.05;107961;1255;60306;-67
2023/06/18 00:08:39;;;;;;;13.50;9.60;;;;;;;32.12;30.59;99670.21;107966;1257;60300;-67
2023/06/18 00:11:05;;;;;;;10.70;9.20;;;;;;;31.89;31.08;99668.60;107994;1257;74345;-68
2023/06/18 00:13:32;;;;;;;12.40;9.30;;;;;;;31.80;30.91;99668.67;107829;1257;60203;-68
2023/06/18 00:15:58;;;;;;;14.90;9.50;;;;;;;31.87;30.95;99666.42;107942;1257;60462;-68
2023/06/18 00:18:25;;;;;;;14.30;9.30;;;;;;;31.81;31.30;99664.86;107915;1257;60476;-68
2023/06/18 00:20:52;;;;;;;17.30;9.80;;;;;;;31.83;31.34;99662.05;107965;1256;60101;-69
2023/06/18 00:23:20;;;;;;;13.70;9.70;;;;;;;31.58;32.06;99663.95;108004;1257;73813;-67
2023/06/18 00:25:47;;;;;;;17.80;10.10;;;;;;;31.59;32.18;99662.55;107946;1257;70815;-68
2023/06/18 00:28:14;;;;;;;11.40;10.20;;;;;;;31.43;32.28;99667.17;107943;1260;73045;-67
2023/06/18 00:30:41;;;;;;;13.10;9.60;;;;;;;30.99;32.57;99665.80;107791;1257;60306;-65
2023/06/18 00:33:10;;;;;;;12.40;9.70;;;;;;;31.44;31.96;99663.99;107768;1257;60460;-68
2023/06/18 00:35:40;;;;;;;15.20;10.00;;;;;;;31.03;32.54;99664.83;107940;1257;73078;-68
2023/06/18 00:38:07;;;;;;;14.60;10.80;;;;;;;31.19;32.55;99663.94;107960;1257;69071;-68
2023/06/18 00:54:36;;;;;;;19.60;10.70;;;;;;;30.69;34.22;99661.84;107888;1257;68774;-69
2023/06/18 01:00:40;;;;;;;16.70;11.40;;;;;;;27.44;39.56;99668.77;105779;1279;616912;-67
2023/06/18 01:03:17;;;;;;;13.00;10.90;;;;;;;28.64;37.64;99666.95;107368;1267;61957;-68
2023/06/18 01:06:02;;;;;;;15.30;11.00;;;;;;;28.86;37.17;99662.78;107270;1269;60166;-68
2023/06/18 01:08:48;;;;;;;15.00;10.70;;;;;;;28.83;37.20;99665.82;107107;1270;70777;-69
2023/06/18 02:13:08;;;;;;;13.20;10.40;;;;;;;30.06;33.83;99682.86;107232;1269;71579;-67
2023/06/18 02:15:35;;;;;;;13.20;10.00;;;;;;;30.23;33.52;99688.84;107905;1254;71688;-66
2023/06/18 02:18:02;;;;;;;14.10;10.60;;;;;;;30.20;33.39;99690.77;108126;1253;61723;-67
2023/06/18 02:20:29;;;;;;;15.40;10.40;;;;;;;30.30;32.97;99693.02;108105;1254;60023;-67
2023/06/18 02:22:56;;;;;;;10.70;9.00;;;;;;;30.14;33.34;99692.90;108128;1258;73047;-68
2023/06/18 02:25:28;;;;;;;13.20;10.30;;;;;;;30.15;33.44;99694.86;108128;1254;70142;-67
2023/06/18 02:28:01;;;;;;;21.10;10.10;;;;;;;30.30;33.34;99699.42;107969;1254;72524;-68
2023/06/18 02:30:30;;;;;;;15.70;10.90;;;;;;;30.39;33.67;99700.84;108140;1254;60868;-68
2023/06/18 02:33:01;;;;;;;15.90;10.50;;;;;;;30.47;33.78;99701.90;108180;1254;60220;-70
2023/06/18 02:35:29;;;;;;;14.50;10.80;;;;;;;30.54;33.78;99701.99;108142;1258;71663;-69
2023/06/18 02:37:55;;;;;;;14.90;11.10;;;;;;;30.63;33.94;99701.06;108113;1257;69987;-68
2023/06/18 02:40:22;;;;;;;14.90;10.50;;;;;;;30.68;33.95;99703.37;108013;1259;72469;-69
2023/06/18 02:42:50;;;;;;;15.10;9.90;;;;;;;30.80;33.69;99701.98;108020;1259;61979;-67
2023/06/18 02:45:21;;;;;;;16.40;10.00;;;;;;;30.80;33.79;99706.09;108116;1253;60336;-69
2023/06/18 02:47:49;;;;;;;15.20;10.40;;;;;;;30.97;33.23;99705.06;108122;1254;72913;-69
2023/06/18 02:50:18;;;;;;;12.30;9.90;;;;;;;31.00;33.29;99707.04;107957;1259;70127;-71
2023/06/18 02:52:46;;;;;;;14.90;11.10;;;;;;;30.90;33.42;99706.21;107951;1255;72202;-68
2023/06/18 02:55:13;;;;;;;14.70;10.80;;;;;;;30.89;33.80;99706.61;108060;1254;61736;-68
2023/06/18 02:57:40;;;;;;;22.10;12.00;;;;;;;30.99;33.65;99704.64;107943;1260;60154;-68
2023/06/18 03:00:09;;;;;;;14.80;10.40;;;;;;;30.95;33.36;99708.83;108079;1259;71537;-69
2023/06/18 03:02:36;;;;;;;13.90;10.60;;;;;;;30.69;33.43;99710.10;108087;1254;70326;-67
2023/06/18 03:05:04;;;;;;;16.40;10.80;;;;;;;30.80;33.61;99708.92;107938;1254;72500;-66
2023/06/18 03:07:31;;;;;;;12.70;10.60;;;;;;;30.70;33.70;99708.02;108050;1254;62445;-67
2023/06/18 03:09:58;;;;;;;16.70;11.40;;;;;;;30.70;33.71;99706.52;107946;1254;59535;-67
2023/06/18 03:12:28;;;;;;;14.90;11.50;;;;;;;30.72;33.71;99702.67;107904;1254;72855;-68
2023/06/18 03:14:55;;;;;;;15.80;10.30;;;;;;;30.65;33.79;99705.35;108260;1254;70574;-67
2023/06/18 03:17:23;;;;;;;16.30;11.30;;;;;;;30.83;33.53;99707.65;108154;1257;73098;-66
2023/06/18 03:19:51;;;;;;;15.80;10.90;;;;;;;30.81;33.47;99712.66;108093;1258;61648;-66
2023/06/18 03:22:18;;;;;;;15.50;11.00;;;;;;;30.95;33.11;99711.15;107966;1254;60300;-68
2023/06/18 03:24:44;;;;;;;11.40;9.60;;;;;;;30.97;32.87;99713.11;108107;1254;72908;-67
2023/06/18 03:27:11;;;;;;;13.80;10.70;;;;;;;30.96;33.05;99718.52;108109;1255;59643;-69
2023/06/18 03:29:38;;;;;;;15.90;10.80;;;;;;;31.02;32.88;99719.80;107938;1259;72887;-68
2023/06/18 03:32:08;;;;;;;16.40;11.20;;;;;;;31.06;32.80;99718.06;108029;1253;61994;-68
2023/06/18 03:34:36;;;;;;;13.20;10.80;;;;;;;31.29;32.71;99717.02;108065;1254;60479;-68
2023/06/18 03:37:03;;;;;;;17.80;10.50;;;;;;;31.36;32.69;99718.44;108118;1254;73031;-69
2023/06/18 03:39:30;;;;;;;14.70;10.50;;;;;;;31.40;32.82;99721.44;108124;1254;70302;-68
2023/06/18 03:41:57;;;;;;;12.20;10.90;;;;;;;31.63;32.40;99721.64;108101;1258;72039;-67
2023/06/18 03:44:24;;;;;;;15.10;11.40;;;;;;;31.62;32.32;99719.84;107918;1255;61984;-69
2023/06/18 03:46:52;;;;;;;14.70;10.70;;;;;;;31.75;32.08;99722.47;108118;1255;59614;-69
2023/06/18 03:49:18;;;;;;;17.50;11.10;;;;;;;31.85;31.81;99721.34;108067;1254;72076;-68
2023/06/18 03:51:45;;;;;;;13.00;10.70;;;;;;;31.90;31.61;99725.70;107928;1260;59605;-69
2023/06/18 03:54:11;;;;;;;15.30;10.60;;;;;;;31.68;31.99;99728.77;108052;1254;71370;-68
2023/06/18 03:56:38;;;;;;;13.40;11.20;;;;;;;31.87;31.76;99727.36;108014;1257;59653;-66
2023/06/18 03:59:05;;;;;;;13.00;10.10;;;;;;;32.05;31.84;99726.81;108103;1254;60588;-66
2023/06/18 04:01:33;;;;;;;17.30;11.50;;;;;;;32.12;31.92;99724.15;108046;1254;73563;-67
2023/06/18 04:04:01;;;;;;;12.30;10.20;;;;;;;32.24;31.70;99726.80;108120;1253;69493;-68
2023/06/18 04:06:28;;;;;;;14.40;9.90;;;;;;;32.36;31.49;99727.52;108165;1254;71493;-69
2023/06/18 04:08:57;;;;;;;16.30;11.40;;;;;;;32.25;31.19;99729.39;108084;1254;60593;-68
2023/06/18 04:11:24;;;;;;;14.50;10.20;;;;;;;32.26;31.20;99732.20;108096;1255;60165;-68
2023/06/18 04:13:50;;;;;;;16.60;10.50;;;;;;;32.39;31.05;99729.49;108077;1254;59365;-68
2023/06/18 04:16:17;;;;;;;17.20;11.60;;;;;;;32.34;30.93;99731.83;107894;1260;59564;-68
2023/06/18 04:18:43;;;;;;;18.20;10.90;;;;;;;32.30;30.42;99734.65;107916;1255;59619;-68
2023/06/18 04:21:10;;;;;;;17.20;10.90;;;;;;;32.30;30.84;99732.92;107898;1258;59756;-69
2023/06/18 04:23:36;;;;;;;17.20;10.90;;;;;;;32.42;31.06;99733.64;107933;1254;60100;-68
2023/06/18 04:26:03;;;;;;;16.60;11.60;;;;;;;32.60;31.11;99739.38;108141;1254;59507;-68
2023/06/18 04:28:29;;;;;;;15.70;10.70;;;;;;;32.70;30.77;99736.69;108073;1254;59657;-67
2023/06/18 04:30:57;;;;;;;18.00;11.30;;;;;;;32.61;30.76;99741.02;108184;1253;73302;-67
2023/06/18 04:33:24;;;;;;;15.10;10.90;;;;;;;32.59;30.66;99740.02;108124;1254;60002;-68
2023/06/18 04:35:52;;;;;;;17.70;10.40;;;;;;;32.61;30.31;99742.40;108153;1254;60698;-67
2023/06/18 04:38:21;;;;;;;15.40;10.30;;;;;;;32.71;30.02;99742.40;108116;1254;73612;-68
2023/06/18 04:40:49;;;;;;;16.20;10.70;;;;;;;32.80;29.88;99744.27;108209;1255;70809;-68
2023/06/18 04:43:17;;;;;;;16.60;10.70;;;;;;;32.93;29.95;99739.40;108246;1254;72409;-68
2023/06/18 04:45:46;;;;;;;11.80;10.40;;;;;;;32.99;29.67;99742.33;108164;1254;60294;-69
2023/06/18 04:48:14;;;;;;;13.00;10.10;;;;;;;33.00;29.81;99746.78;108057;1254;60322;-68
2023/06/18 04:50:41;;;;;;;12.90;10.00;;;;;;;33.14;29.79;99749.92;108193;1254;73709;-67
2023/06/18 04:53:07;;;;;;;15.80;10.20;;;;;;;33.45;29.31;99746.89;107977;1259;70144;-69
2023/06/18 04:55:34;;;;;;;14.50;10.50;;;;;;;33.59;28.81;99745.45;107971;1259;72442;-70
2023/06/18 04:58:01;;;;;;;14.40;10.40;;;;;;;33.66;28.72;99748.98;108056;1254;59479;-68
2023/06/18 05:00:28;;;;;;;21.60;10.60;;;;;;;33.82;28.38;99758.19;108102;1256;60811;-67
2023/06/18 05:02:57;;;;;;;12.70;10.00;;;;;;;34.07;28.25;99762.68;108047;1254;64847;-69
2023/06/18 05:05:24;;;;;;;17.20;11.00;;;;;;;34.40;27.62;99764.13;108160;1254;61382;-68
2023/06/18 05:07:51;;;;;;;15.10;9.90;;;;;;;34.48;27.15;99764.90;108040;1254;64163;-70
2023/06/18 05:10:18;;;;;;;16.50;10.40;;;;;;;34.53;26.42;99766.27;108078;1254;59530;-68
2023/06/18 05:12:45;;;;;;;17.50;10.10;;;;;;;34.33;25.98;99764.73;108213;1254;59646;-68
2023/06/18 05:15:13;;;;;;;14.50;9.90;;;;;;;34.29;26.04;99765.59;108243;1253;63130;-69
2023/06/18 05:17:42;;;;;;;22.00;10.70;;;;;;;34.39;26.13;99770.23;108221;1254;61621;-69
2023/06/18 05:20:12;;;;;;;15.70;9.80;;;;;;;34.39;26.20;99772.05;108101;1254;64049;-67
2023/06/18 05:22:40;;;;;;;16.10;10.40;;;;;;;34.43;26.22;99772.35;108193;1254;60332;-69
2023/06/18 05:25:07;;;;;;;16.30;10.10;;;;;;;34.44;26.11;99776.41;108054;1254;59149;-70
2023/06/18 05:27:34;;;;;;;12.00;9.60;;;;;;;34.37;26.30;99777.86;108023;1255;65202;-69
2023/06/18 05:30:01;;;;;;;18.70;11.10;;;;;;;34.36;26.83;99779.04;108172;1254;61483;-70
2023/06/18 05:32:29;;;;;;;15.40;9.80;;;;;;;34.40;26.61;99775.69;108162;1256;64308;-68
2023/06/18 05:34:56;;;;;;;17.10;10.20;;;;;;;34.27;26.24;99781.13;108148;1255;60447;-69
2023/06/18 05:37:23;;;;;;;13.20;8.90;;;;;;;34.29;26.33;99780.27;108198;1254;60329;-69
2023/06/18 05:39:51;;;;;;;21.40;10.40;;;;;;;34.37;26.34;99782.81;108160;1259;65878;-69
2023/06/18 05:42:18;;;;;;;19.40;9.50;;;;;;;34.43;26.28;99786.94;108080;1254;61797;-70
2023/06/18 05:44:45;;;;;;;15.10;9.50;;;;;;;34.53;26.57;99787.34;107946;1253;64085;-69
2023/06/18 05:47:27;;;;;;;14.90;9.90;;;;;;;34.74;26.23;99791.61;108141;1254;60354;-67
2023/06/18 05:50:52;;;;;;;10.60;8.90;;;;;;;34.49;25.89;99789.00;108194;1254;59755;-68
2023/06/18 06:06:05;;;;;;;18.20;8.90;;;;;;;35.68;24.37;99794.65;108152;1253;60464;-70
2023/06/18 06:08:39;;;;;;;14.10;8.70;;;;;;;35.66;23.85;99794.16;108170;1254;63922;-68
2023/06/18 06:11:10;;;;;;;16.70;9.10;;;;;;;35.70;23.99;99795.89;108214;1254;61654;-68
2023/06/18 06:20:10;;;;;;;18.30;8.10;;;;;;;36.75;22.91;99798.91;108074;1254;60710;-70
2023/06/18 06:22:37;;;;;;;12.00;8.20;;;;;;;36.71;22.18;99799.40;108184;1254;65261;-69
2023/06/18 06:25:05;;;;;;;25.00;8.30;;;;;;;36.95;22.10;99803.28;108226;1254;61548;-69
2023/06/18 06:27:33;;;;;;;13.80;8.20;;;;;;;36.90;21.90;99805.76;108192;1257;63869;-69
2023/06/18 06:30:01;;;;;;;14.70;8.30;;;;;;;36.99;21.80;99805.69;108095;1254;58975;-68
2023/06/18 06:32:30;;;;;;;10.20;7.40;;;;;;;37.15;21.89;99804.35;108270;1254;60934;-67
2023/06/18 06:34:56;;;;;;;11.20;7.30;;;;;;;37.34;21.44;99807.13;108126;1254;65022;-68
2023/06/18 06:37:23;;;;;;;14.40;7.50;;;;;;;37.56;21.16;99806.64;108141;1254;60458;-70
2023/06/18 06:39:50;;;;;;;9.80;6.80;;;;;;;37.76;20.79;99810.52;108078;1257;64040;-69
2023/06/18 06:42:17;;;;;;;12.20;7.60;;;;;;;38.02;20.83;99812.59;108095;1254;60255;-70
2023/06/18 06:44:46;;;;;;;11.40;7.70;;;;;;;38.37;20.39;99812.11;108192;1253;60341;-70
2023/06/18 06:47:25;;;;;;;9.20;7.70;;;;;;;38.22;20.68;99810.73;108208;1254;65275;-71
2023/06/18 06:50:17;;;;;;;9.50;7.30;;;;;;;38.58;20.38;99809.91;108189;1252;61522;-67
2023/06/18 06:52:57;;;;;;;13.80;7.60;;;;;;;38.87;20.10;99809.08;108272;1254;64216;-69
2023/06/18 06:55:27;;;;;;;12.60;7.10;;;;;;;39.02;19.96;99811.08;108114;1254;59888;-68
2023/06/18 06:57:54;;;;;;;11.50;7.30;;;;;;;38.99;20.06;99812.42;108136;1253;60226;-70
2023/06/18 07:00:21;;;;;;;12.80;7.00;;;;;;;39.09;20.23;99813.90;108128;1254;65349;-69
2023/06/18 07:02:49;;;;;;;19.80;7.40;;;;;;;39.13;20.02;99814.07;108263;1254;60441;-67
2023/06/18 07:05:16;;;;;;;12.20;7.80;;;;;;;39.06;20.28;99818.26;108205;1253;71636;-69
2023/06/18 07:07:43;;;;;;;11.80;7.50;;;;;;;39.11;19.99;99823.18;108203;1253;59366;-69
2023/06/18 07:10:10;;;;;;;11.70;7.60;;;;;;;39.14;20.13;99820.04;108207;1253;59437;-68
2023/06/18 07:12:37;;;;;;;10.40;6.80;;;;;;;39.27;19.96;99824.18;108225;1254;65218;-68
2023/06/18 07:15:05;;;;;;;8.20;7.00;;;;;;;39.37;19.72;99824.67;108223;1253;61635;-70
2023/06/18 07:17:32;;;;;;;12.20;7.20;;;;;;;39.91;19.35;99825.84;108197;1254;63437;-70
2023/06/18 07:20:00;;;;;;;13.50;6.50;;;;;;;40.15;19.40;99825.08;108181;1254;60469;-70
2023/06/18 07:22:30;;;;;;;9.30;6.20;;;;;;;40.07;18.61;99824.44;108298;1253;59259;-71
2023/06/18 07:24:58;;;;;;;9.30;6.70;;;;;;;39.67;18.88;99826.73;108063;1254;65447;-69
2023/06/18 07:27:25;;;;;;;10.20;6.90;;;;;;;39.70;18.89;99830.70;108181;1253;61816;-69
2023/06/18 07:29:51;;;;;;;8.80;6.60;;;;;;;39.93;18.85;99827.36;108133;1254;64120;-70
2023/06/18 07:32:18;;;;;;;11.20;6.80;;;;;;;40.56;18.61;99823.73;108229;1254;60326;-68
2023/06/18 07:35:13;;;;;;;10.90;6.30;;;;;;;40.54;17.83;99823.23;108184;1253;60453;-69
2023/06/18 07:37:40;;;;;;;10.90;6.30;;;;;;;40.38;17.41;99824.95;108164;1254;65118;-70
2023/06/18 07:40:28;;;;;;;9.00;6.30;;;;;;;40.39;17.72;99826.50;108178;1254;61744;-70
2023/06/18 07:42:54;;;;;;;12.60;7.30;;;;;;;40.60;17.75;99825.27;108226;1253;63296;-69
2023/06/18 07:45:21;;;;;;;10.90;6.70;;;;;;;40.93;17.70;99826.71;108188;1253;59086;-70
2023/06/18 07:47:47;;;;;;;10.30;6.20;;;;;;;41.36;17.80;99826.63;108144;1254;60284;-69
2023/06/18 07:50:15;;;;;;;9.80;7.00;;;;;;;41.82;17.42;99822.96;108099;1253;64006;-70
2023/06/18 07:52:42;;;;;;;8.00;5.90;;;;;;;41.96;16.57;99823.91;108169;1254;61565;-69
2023/06/18 07:55:08;;;;;;;8.30;6.50;;;;;;;42.05;16.63;99823.28;108178;1253;60311;-69
2023/06/18 07:57:38;;;;;;;10.60;6.40;;;;;;;42.31;16.86;99825.39;108200;1253;60289;-69
2023/06/18 08:00:06;;;;;;;11.60;5.60;;;;;;;42.14;16.43;99826.30;108152;1254;60505;-70
2023/06/18 08:02:39;;;;;;;7.30;6.30;;;;;;;42.12;16.37;99825.55;108179;1254;65268;-68
2023/06/18 08:05:07;;;;;;;8.20;5.90;;;;;;;42.18;16.79;99822.83;108172;1254;61548;-70
2023/06/18 08:07:33;;;;;;;7.80;6.20;;;;;;;42.28;15.92;99825.61;108194;1254;64185;-70
2023/06/18 08:10:00;;;;;;;8.70;5.20;;;;;;;42.23;15.50;99830.58;108178;1256;60325;-70
2023/06/18 08:12:26;;;;;;;14.80;5.50;;;;;;;42.12;15.43;99832.82;108209;1254;60171;-69
2023/06/18 08:14:53;;;;;;;7.90;5.60;;;;;;;42.03;15.36;99829.70;108205;1254;60410;-69
2023/06/18 08:17:20;;;;;;;8.10;5.80;;;;;;;42.23;15.67;99827.15;108067;1253;61716;-70
2023/06/18 08:19:47;;;;;;;10.80;5.10;;;;;;;42.16;15.16;99828.17;108189;1254;63748;-70
2023/06/18 08:22:15;;;;;;;6.70;5.70;;;;;;;42.53;15.57;99824.72;108176;1253;60329;-70
2023/06/18 08:24:41;;;;;;;12.10;6.20;;;;;;;42.99;14.88;99823.09;108240;1254;60630;-71
2023/06/18 08:27:08;;;;;;;8.30;5.80;;;;;;;43.29;15.00;99826.96;108056;1254;64988;-69
2023/06/18 08:29:35;;;;;;;8.70;5.80;;;;;;;42.93;15.04;99827.77;108114;1253;60407;-69
2023/06/18 08:32:04;;;;;;;7.50;5.80;;;;;;;42.62;15.08;99822.95;108181;1253;62761;-69
2023/06/18 08:34:33;;;;;;;7.70;5.80;;;;;;;42.84;15.13;99822.02;108216;1254;60431;-69
2023/06/18 08:36:59;;;;;;;9.80;4.70;;;;;;;43.20;15.00;99822.48;108305;1253;60338;-71
2023/06/18 08:39:29;;;;;;;8.40;5.40;;;;;;;43.18;15.01;99822.11;108208;1252;63741;-69
2023/06/18 08:42:01;;;;;;;8.60;5.20;;;;;;;43.20;14.97;99826.70;108170;1255;61825;-70
2023/06/18 08:44:29;;;;;;;7.60;6.00;;;;;;;42.93;15.05;99822.80;108157;1254;63943;-70
2023/06/18 08:47:00;;;;;;;8.10;5.50;;;;;;;42.81;14.89;99821.64;108189;1253;60259;-71
2023/06/18 08:49:27;;;;;;;9.30;5.90;;;;;;;42.81;14.94;99822.02;108176;1254;60394;-70
2023/06/18 08:51:54;;;;;;;6.90;5.40;;;;;;;42.79;13.59;99824.29;108188;1253;64423;-70
2023/06/18 08:54:22;;;;;;;8.10;5.80;;;;;;;43.08;13.47;99824.45;108274;1254;61518;-70
2023/06/18 08:56:55;;;;;;;11.90;6.00;;;;;;;43.18;12.99;99822.10;107994;1254;63843;-70
2023/06/18 08:59:21;;;;;;;12.20;5.60;;;;;;;43.40;12.92;99820.24;108074;1253;60411;-70
2023/06/18 09:01:48;;;;;;;6.80;5.50;;;;;;;43.11;12.71;99822.26;108006;1260;60412;-69
2023/06/18 09:04:15;;;;;;;8.30;5.20;;;;;;;42.97;12.59;99820.08;108103;1254;60329;-69
2023/06/18 09:06:42;;;;;;;7.80;5.30;;;;;;;42.81;12.87;99820.58;108208;1254;61668;-70
2023/06/18 09:09:11;;;;;;;7.30;5.70;;;;;;;42.92;12.91;99820.42;108044;1259;63906;-71
2023/06/18 09:11:38;;;;;;;6.60;5.60;;;;;;;42.80;14.09;99814.92;108190;1253;60441;-69
2023/06/18 09:14:05;;;;;;;6.80;5.80;;;;;;;43.09;13.76;99811.98;108172;1253;60908;-70
2023/06/18 09:16:32;;;;;;;11.70;6.50;;;;;;;43.03;13.89;99812.48;108160;1254;65240;-71
2023/06/18 09:18:59;;;;;;;8.60;5.40;;;;;;;42.84;14.21;99814.48;108145;1253;61680;-71
2023/06/18 09:21:38;;;;;;;10.40;5.60;;;;;;;42.06;13.71;99817.61;108152;1254;63953;-71
2023/06/18 09:44:51;;;;;;;8.60;6.10;;;;;;;41.01;15.49;99805.52;108106;1254;60409;-70
2023/06/18 09:47:18;;;;;;;7.60;6.10;;;;;;;41.02;15.93;99805.08;108138;1256;65353;-69
2023/06/18 09:49:48;;;;;;;10.00;5.90;;;;;;;41.64;15.76;99802.36;108203;1253;61516;-70
2023/06/18 09:52:17;;;;;;;8.50;6.10;;;;;;;41.75;15.76;99798.50;108153;1254;71576;-69
2023/06/18 09:54:43;;;;;;;10.10;6.60;;;;;;;41.74;15.68;99798.88;108061;1254;60326;-70
2023/06/18 09:57:11;;;;;;;10.40;6.70;;;;;;;41.58;15.98;99803.34;108166;1252;60578;-69
2023/06/18 09:59:38;;;;;;;15.10;6.70;;;;;;;41.51;16.16;99802.36;108131;1254;63767;-69
2023/06/18 10:02:05;;;;;;;10.50;6.40;;;;;;;41.50;16.12;99802.52;108137;1252;59659;-70
2023/06/18 10:04:33;;;;;;;10.90;6.80;;;;;;;41.53;15.70;99804.02;108186;1253;63899;-69
2023/06/18 10:07:02;;;;;;;8.50;6.00;;;;;;;41.38;15.79;99803.27;108145;1256;60350;-70
2023/06/18 10:09:36;;;;;;;10.60;6.60;;;;;;;41.33;15.79;99799.71;108178;1254;59604;-70
2023/06/18 10:12:04;;;;;;;7.40;6.00;;;;;;;41.03;15.59;99804.77;108159;1253;65266;-69
2023/06/18 10:14:31;;;;;;;9.80;6.20;;;;;;;40.82;15.87;99802.29;108187;1254;60422;-71
2023/06/18 10:17:23;;;;;;;8.60;5.90;;;;;;;40.73;16.01;99800.16;108174;1253;62434;-70
2023/06/18 10:19:56;;;;;;;8.90;6.00;;;;;;;40.70;16.00;99798.86;108150;1253;60356;-69
2023/06/18 10:22:22;;;;;;;9.80;6.40;;;;;;;40.71;15.62;99801.36;108105;1257;59185;-70
2023/06/18 10:24:58;;;;;;;8.50;6.20;;;;;;;40.90;15.73;99800.73;108162;1253;60444;-70
2023/06/18 10:27:24;;;;;;;11.90;6.90;;;;;;;41.14;15.63;99799.65;108194;1253;61892;-70
2023/06/18 10:29:51;;;;;;;13.80;6.00;;;;;;;41.29;15.48;99796.16;107986;1253;64143;-69
2023/06/18 10:32:17;;;;;;;8.00;5.80;;;;;;;41.39;15.37;99791.96;108011;1253;60543;-70
2023/06/18 10:34:44;;;;;;;10.50;6.10;;;;;;;41.48;15.47;99791.28;108035;1253;60342;-69
2023/06/18 10:37:10;;;;;;;8.30;5.70;;;;;;;41.49;15.11;99795.16;108019;1259;60307;-70
2023/06/18 10:39:38;;;;;;;9.40;6.10;;;;;;;40.97;15.34;99794.39;108046;1254;60447;-69
2023/06/18 10:42:12;;;;;;;7.30;5.90;;;;;;;40.78;15.56;99796.02;108033;1254;60418;-71
2023/06/18 10:44:47;;;;;;;12.70;5.90;;;;;;;40.97;15.60;99798.14;108119;1253;60349;-69
2023/06/18 10:47:24;;;;;;;9.20;6.00;;;;;;;41.23;15.46;99794.29;108166;1256;60374;-69
2023/06/18 10:50:03;;;;;;;9.40;5.40;;;;;;;41.59;15.37;99796.94;108170;1256;65072;-69
2023/06/18 10:52:32;;;;;;;9.00;6.20;;;;;;;41.71;15.10;99799.31;108181;1253;61431;-70
2023/06/18 10:55:11;;;;;;;8.20;5.60;;;;;;;41.54;15.02;99800.33;108166;1253;64059;-69
2023/06/18 10:57:50;;;;;;;8.50;5.80;;;;;;;41.42;15.11;99799.98;108191;1254;59641;-71
2023/06/18 11:00:21;;;;;;;12.00;6.00;;;;;;;41.72;15.19;99798.09;108193;1253;60504;-70
2023/06/18 11:02:51;;;;;;;10.40;5.50;;;;;;;41.70;15.10;99796.10;108238;1256;65272;-69
2023/06/18 11:05:36;;;;;;;9.20;5.60;;;;;;;41.68;15.10;99795.48;108193;1254;61580;-69
2023/06/18 11:08:04;;;;;;;7.90;5.30;;;;;;;41.91;15.16;99795.84;108123;1256;63845;-69
2023/06/18 11:10:35;;;;;;;9.90;6.10;;;;;;;41.57;14.57;99795.81;108159;1256;60335;-70
2023/06/18 11:13:09;;;;;;;23.10;6.50;;;;;;;41.57;14.51;99796.65;108169;1253;60364;-69
2023/06/18 11:15:59;;;;;;;13.10;5.60;;;;;;;41.75;14.48;99798.59;108179;1254;65121;-70
2023/06/18 11:18:27;;;;;;;9.00;5.60;;;;;;;41.92;14.23;99801.92;108199;1253;60458;-70
2023/06/18 11:25:13;;;;;;;11.00;5.40;;;;;;;42.44;14.18;99794.92;108142;1253;60191;-70
2023/06/18 11:40:26;;;;;;;6.60;5.90;;;;;;;42.95;13.04;99801.26;108059;1253;60377;-70
2023/06/18 11:42:53;;;;;;;10.00;5.80;;;;;;;42.98;13.07;99800.53;108039;1253;60534;-70
2023/06/18 11:45:20;;;;;;;8.70;5.40;;;;;;;43.28;13.01;99796.48;108098;1253;65261;-69
2023/06/18 11:47:48;;;;;;;8.60;5.70;;;;;;;43.68;12.64;99805.02;108070;1254;61365;-70
2023/06/18 11:50:16;;;;;;;9.00;6.00;;;;;;;43.72;12.59;99807.39;108125;1253;64161;-70
2023/06/18 11:52:44;;;;;;;7.70;5.70;;;;;;;43.53;12.58;99806.73;108116;1252;60351;-69
2023/06/18 11:55:10;;;;;;;9.30;6.80;;;;;;;43.09;12.40;99805.27;108095;1254;60507;-68
2023/06/18 11:57:38;;;;;;;8.10;5.90;;;;;;;42.89;12.66;99803.80;107959;1253;65073;-70
2023/06/18 12:00:08;;;;;;;9.30;5.70;;;;;;;42.57;12.57;99801.91;107967;1259;62488;-69
2023/06/18 12:02:41;;;;;;;7.90;5.40;;;;;;;42.47;12.65;99801.64;108167;1253;63865;-72
2023/06/18 12:05:08;;;;;;;8.00;5.30;;;;;;;42.44;12.98;99796.80;108135;1253;60326;-69
2023/06/18 12:07:38;;;;;;;10.00;5.80;;;;;;;42.78;13.16;99792.71;108122;1253;60448;-71
2023/06/18 12:10:09;;;;;;;7.20;5.60;;;;;;;43.27;12.54;99793.33;108165;1254;63866;-70
2023/06/18 12:12:54;;;;;;;;;;;;;;;43.52;12.51;99793.83;108163;1254;61655;-69
2023/06/18 12:15:21;;;;;;;7.90;5.80;;;;;;;43.26;12.20;99788.45;108172;1253;63988;-71
2023/06/18 12:17:55;;;;;;;8.00;5.70;;;;;;;43.10;12.12;99784.42;108182;1253;59186;-70
2023/06/18 12:20:24;;;;;;;7.70;5.10;;;;;;;43.22;12.35;99783.58;108124;1253;60396;-68
2023/06/18 12:22:51;;;;;;;9.40;5.00;;;;;;;43.23;12.62;99785.07;108198;1254;65342;-70
2023/06/18 12:25:19;;;;;;;9.10;5.70;;;;;;;42.74;12.96;99783.14;107986;1254;70059;-71
2023/06/18 12:27:47;;;;;;;10.80;8.30;;;;;;;42.63;13.15;99783.14;108065;1257;63926;-68
2023/06/18 12:30:14;;;;;;;6.30;5.30;;;;;;;42.39;12.99;99777.91;108172;1256;60329;-70
2023/06/18 12:32:41;;;;;;;9.80;7.40;;;;;;;42.42;13.45;99779.54;108160;1254;60208;-69
2023/06/18 12:35:19;;;;;;;6.60;5.60;;;;;;;42.92;13.08;99776.36;108097;1254;65153;-70
2023/06/18 12:37:47;;;;;;;10.50;8.70;;;;;;;43.34;12.79;99779.28;108146;1253;61933;-68
2023/06/18 12:40:24;;;;;;;16.10;11.70;;;;;;;43.61;12.88;99788.23;108149;1253;62593;-71
2023/06/18 12:42:51;;;;;;;8.50;5.60;;;;;;;43.20;12.67;99783.20;108133;1256;60559;-70
2023/06/18 12:45:26;;;;;;;8.20;5.20;;;;;;;42.90;12.89;99780.02;108163;1253;60342;-69
2023/06/18 12:47:59;;;;;;;10.80;7.50;;;;;;;42.99;13.01;99777.46;108135;1254;65183;-70
2023/06/18 12:50:38;;;;;;;9.50;7.00;;;;;;;43.24;12.74;99779.65;108177;1254;61487;-69
2023/06/18 12:53:12;;;;;;;7.00;6.30;;;;;;;43.14;13.06;99778.55;108191;1253;64054;-71
2023/06/18 12:55:39;;;;;;;10.40;5.80;;;;;;;43.08;13.23;99778.13;108222;1252;60355;-72
2023/06/18 12:58:34;;;;;;;8.70;5.40;;;;;;;43.05;12.75;99778.86;108218;1253;59244;-70
2023/06/18 13:01:01;;;;;;;9.50;5.80;;;;;;;42.76;13.39;99779.11;108218;1254;65077;-71
2023/06/18 13:03:28;;;;;;;7.70;5.60;;;;;;;42.58;13.77;99778.65;108182;1253;61955;-73
2023/06/18 13:05:56;;;;;;;8.30;5.90;;;;;;;42.16;13.77;99777.77;108170;1254;63845;-69
2023/06/18 13:08:22;;;;;;;6.60;5.40;;;;;;;42.06;14.24;99773.79;108237;1252;60389;-69
2023/06/18 13:10:51;;;;;;;9.00;5.90;;;;;;;41.96;14.12;99773.40;108182;1253;60402;-71
2023/06/18 13:13:18;;;;;;;8.20;5.70;;;;;;;41.87;14.01;99773.33;108060;1254;151957;-70
2023/06/18 13:17:06;;;;;;;11.70;5.60;;;;;;;39.90;15.83;99771.29;104855;1291;600119;-71
2023/06/18 13:19:34;;;;;;;8.20;6.00;;;;;;;41.69;14.74;99769.38;107250;1265;59088;-70
2023/06/18 13:22:20;;;;;;;9.50;6.00;;;;;;;41.83;14.52;99763.06;107611;1259;59168;-70
2023/06/18 13:24:48;;;;;;;10.80;6.40;;;;;;;41.81;14.62;99768.60;107629;1258;62056;-70
2023/06/18 13:27:15;;;;;;;12.30;6.30;;;;;;;41.53;14.77;99768.11;107669;1259;61393;-70
2023/06/18 13:29:43;;;;;;;9.70;6.10;;;;;;;41.26;14.74;99771.33;107535;1260;307439;-69
2023/06/18 13:32:10;;;;;;;10.00;6.70;;;;;;;41.37;14.62;99767.46;107822;1258;59138;-69
2023/06/18 13:34:37;;;;;;;10.00;5.90;;;;;;;41.38;14.59;99765.10;107850;1256;59319;-69
2023/06/18 13:37:05;;;;;;;7.90;6.10;;;;;;;41.21;14.79;99762.90;107733;1261;63341;-69
2023/06/18 13:39:32;;;;;;;10.80;6.30;;;;;;;40.66;15.23;99761.07;107799;1260;60095;-70
2023/06/18 13:41:59;;;;;;;9.10;6.00;;;;;;;40.44;15.80;99760.13;107915;1256;63712;-71
2023/06/18 13:44:26;;;;;;;10.10;6.10;;;;;;;40.34;15.58;99757.15;107889;1256;59682;-70